createdAt,value
2023-04-22T00:00:40.638Z,97132.12
2023-04-22T00:03:10.471Z,97139.14
2023-04-22T00:05:38.691Z,97138.09
2023-04-22T00:08:06.559Z,97134.63
2023-04-22T00:10:34.620Z,97135.41
2023-04-22T00:13:02.829Z,97131.41
2023-04-22T00:15:30.773Z,97128.96
2023-04-22T00:17:58.780Z,97133.78
2023-04-22T00:20:26.639Z,97130.01
2023-04-22T00:22:54.460Z,97136.14
2023-04-22T00:25:22.477Z,97131.58
2023-04-22T00:27:50.354Z,97135.36
2023-04-22T00:30:18.308Z,97135.13
2023-04-22T00:32:48.574Z,97133.78
2023-04-22T00:35:16.415Z,97135.36
2023-04-22T00:37:44.340Z,97130.47
2023-04-22T00:40:12.571Z,97137.66
2023-04-22T00:42:43.385Z,97140.01
2023-04-22T00:45:25.680Z,97139.48
2023-04-22T00:47:54.014Z,97147.24
2023-04-22T00:50:21.813Z,97140.94
2023-04-22T00:52:50.111Z,97144.77
2023-04-22T00:55:18.238Z,97147.21
2023-04-22T00:57:49.349Z,97146.48
2023-04-22T01:00:19.612Z,97142.24
2023-04-22T01:02:48.264Z,97148.92
2023-04-22T01:05:17.097Z,97144.09
2023-04-22T01:07:45.037Z,97147.03
2023-04-22T01:10:13.378Z,97146.48
2023-04-22T01:12:41.402Z,97142.47
2023-04-22T01:15:10.545Z,97144.54
2023-04-22T01:17:38.394Z,97149.89
2023-04-22T01:20:09.673Z,97147.45
2023-04-22T01:22:45.061Z,97149.02
2023-04-22T01:25:13.241Z,97164.04
2023-04-22T01:27:41.506Z,97158.75
2023-04-22T01:30:10.897Z,97147.03
2023-04-22T01:32:40.848Z,97159.91
2023-04-22T01:35:10.428Z,97158.34
2023-04-22T01:37:39.023Z,97158.39
2023-04-22T01:40:10.118Z,97157.37
2023-04-22T01:42:38.971Z,97154.70
2023-04-22T01:45:07.969Z,97155.48
2023-04-22T01:47:35.932Z,97157.28
2023-04-22T01:50:04.033Z,97158.11
2023-04-22T01:52:31.954Z,97154.33
2023-04-22T01:55:00.858Z,97153.77
2023-04-22T01:57:31.955Z,97150.00
2023-04-22T02:00:00.694Z,97148.92
2023-04-22T02:02:28.691Z,97153.45
2023-04-22T02:04:57.521Z,97149.77
2023-04-22T02:07:25.654Z,97150.08
2023-04-22T02:09:53.525Z,97153.28
2023-04-22T02:12:21.477Z,97157.84
2023-04-22T02:14:49.229Z,97150.92
2023-04-22T02:17:17.399Z,97155.77
2023-04-22T02:19:46.729Z,97156.09
2023-04-22T02:22:15.211Z,97155.12
2023-04-22T02:24:43.256Z,97154.34
2023-04-22T02:27:11.219Z,97146.61
2023-04-22T02:29:39.224Z,97153.84
2023-04-22T02:32:08.079Z,97153.38
2023-04-22T02:34:36.034Z,97154.45
2023-04-22T02:37:03.794Z,97159.33
2023-04-22T02:39:31.983Z,97161.22
2023-04-22T02:42:00.888Z,97163.39
2023-04-22T02:44:28.637Z,97164.73
2023-04-22T02:46:56.532Z,97165.56
2023-04-22T02:49:24.583Z,97162.48
2023-04-22T02:51:53.585Z,97160.17
2023-04-22T02:54:21.500Z,97168.42
2023-04-22T02:56:49.232Z,97163.08
2023-04-22T02:59:17.034Z,97155.66
2023-04-22T03:01:45.130Z,97169.58
2023-04-22T03:04:15.439Z,97168.55
2023-04-22T03:06:43.842Z,97171.83
2023-04-22T03:09:11.870Z,97171.28
2023-04-22T03:11:39.590Z,97171.28
2023-04-22T03:14:07.488Z,97172.06
2023-04-22T03:16:35.468Z,97178.74
2023-04-22T03:19:04.959Z,97174.50
2023-04-22T03:21:32.646Z,97175.94
2023-04-22T03:24:00.712Z,97180.58
2023-04-22T03:26:28.976Z,97184.39
2023-04-22T03:28:56.869Z,97181.50
2023-04-22T03:31:24.695Z,97182.13
2023-04-22T03:33:52.633Z,97182.13
2023-04-22T03:36:22.475Z,97188.86
2023-04-22T03:38:51.102Z,97191.58
2023-04-22T03:41:19.329Z,97191.34
2023-04-22T03:43:48.572Z,97186.55
2023-04-22T03:46:17.653Z,97190.48
2023-04-22T03:48:47.234Z,97191.53
2023-04-22T03:51:16.913Z,97199.80
2023-04-22T03:53:44.974Z,97194.54
2023-04-22T03:56:17.690Z,97193.36
2023-04-22T03:58:52.115Z,97196.81
2023-04-22T04:01:20.171Z,97198.38
2023-04-22T04:03:50.050Z,97202.55
2023-04-22T04:06:18.292Z,97203.54
2023-04-22T04:08:46.787Z,97210.43
2023-04-22T04:11:14.482Z,97207.64
2023-04-22T04:13:42.312Z,97211.80
2023-04-22T04:16:15.983Z,97218.27
2023-04-22T04:18:44.576Z,97222.41
2023-04-22T04:21:12.879Z,97221.69
2023-04-22T04:23:42.439Z,97222.14
2023-04-22T04:26:10.544Z,97226.35
2023-04-22T04:28:41.072Z,97229.88
2023-04-22T04:31:09.436Z,97222.53
2023-04-22T04:33:38.858Z,97232.60
2023-04-22T04:36:08.591Z,97232.19
2023-04-22T04:38:36.923Z,97232.16
2023-04-22T04:41:05.166Z,97232.27
2023-04-22T04:43:34.712Z,97235.98
2023-04-22T04:46:05.064Z,97236.53
2023-04-22T04:48:35.586Z,97231.97
2023-04-22T04:51:05.699Z,97240.79
2023-04-22T04:53:35.382Z,97245.97
2023-04-22T04:56:03.365Z,97246.28
2023-04-22T04:58:32.810Z,97239.58
2023-04-22T05:01:02.551Z,97235.27
2023-04-22T05:03:31.208Z,97235.31
2023-04-22T05:06:02.825Z,97243.51
2023-04-22T05:08:30.814Z,97240.38
2023-04-22T05:11:00.878Z,97243.11
2023-04-22T05:13:29.497Z,97241.70
2023-04-22T05:15:57.715Z,97244.75
2023-04-22T05:18:27.560Z,97246.10
2023-04-22T05:20:57.519Z,97246.44
2023-04-22T05:23:26.930Z,97254.05
2023-04-22T05:26:00.046Z,97262.34
2023-04-22T05:28:28.177Z,97258.28
2023-04-22T05:30:59.511Z,97261.02
2023-04-22T05:33:31.361Z,97264.66
2023-04-22T05:35:59.506Z,97260.46
2023-04-22T05:38:28.244Z,97263.81
2023-04-22T05:40:56.830Z,97262.06
2023-04-22T05:43:25.512Z,97262.62
2023-04-22T05:45:57.669Z,97259.45
2023-04-22T05:48:25.704Z,97250.84
2023-04-22T05:50:55.222Z,97261.57
2023-04-22T05:53:23.167Z,97253.97
2023-04-22T05:55:52.060Z,97254.07
2023-04-22T05:58:20.254Z,97253.02
2023-04-22T06:01:13.426Z,97255.97
2023-04-22T06:03:52.154Z,97259.36
2023-04-22T06:06:23.991Z,97261.51
2023-04-22T06:08:52.374Z,97267.11
2023-04-22T06:11:20.333Z,97268.36
2023-04-22T06:13:48.170Z,97267.67
2023-04-22T06:19:45.828Z,97273.00
2023-04-22T06:22:14.065Z,97265.83
2023-04-22T06:24:46.404Z,97272.72
2023-04-22T06:27:17.057Z,97272.75
2023-04-22T06:29:45.150Z,97272.27
2023-04-22T06:32:13.941Z,97270.17
2023-04-22T06:34:43.343Z,97266.23
2023-04-22T06:37:20.483Z,97272.30
2023-04-22T06:39:52.313Z,97276.27
2023-04-22T06:42:31.126Z,97265.31
2023-04-22T06:45:14.091Z,97274.37
2023-04-22T06:47:57.008Z,97266.55
2023-04-22T06:50:27.315Z,97272.25
2023-04-22T06:52:59.299Z,97270.02
2023-04-22T06:55:31.008Z,97268.12
2023-04-22T06:58:02.211Z,97270.88
2023-04-22T07:00:30.375Z,97275.66
2023-04-22T07:02:59.019Z,97265.33
2023-04-22T07:05:30.468Z,97274.40
2023-04-22T07:08:04.178Z,97269.96
2023-04-22T07:10:36.811Z,97275.47
2023-04-22T07:13:15.249Z,97267.72
2023-04-22T07:15:43.514Z,97271.78
2023-04-22T07:18:11.719Z,97268.44
2023-04-22T07:20:39.854Z,97267.45
2023-04-22T07:23:08.245Z,97270.61
2023-04-22T07:25:36.137Z,97272.87
2023-04-22T07:28:04.373Z,97271.20
2023-04-22T07:30:33.769Z,97271.30
2023-04-22T07:33:02.083Z,97270.17
2023-04-22T07:35:31.307Z,97268.49
2023-04-22T07:37:59.400Z,97268.84
2023-04-22T07:40:27.926Z,97269.98
2023-04-22T07:42:55.930Z,97261.38
2023-04-22T07:45:23.968Z,97259.51
2023-04-22T07:47:52.028Z,97261.35
2023-04-22T07:50:19.802Z,97261.42
2023-04-22T07:52:47.670Z,97258.95
2023-04-22T07:55:15.827Z,97255.03
2023-04-22T07:57:43.731Z,97258.82
2023-04-22T08:00:13.367Z,97259.36
2023-04-22T08:02:41.692Z,97252.00
2023-04-22T08:05:10.923Z,97251.28
2023-04-22T08:07:39.036Z,97254.23
2023-04-22T08:10:08.024Z,97251.16
2023-04-22T08:12:36.685Z,97251.16
2023-04-22T08:15:05.807Z,97249.88
2023-04-22T08:17:35.619Z,97247.17
2023-04-22T08:20:06.517Z,97252.18
2023-04-22T08:22:35.302Z,97244.77
2023-04-22T08:25:09.596Z,97246.38
2023-04-22T08:27:41.722Z,97247.65
2023-04-22T08:30:10.364Z,97248.02
2023-04-22T08:32:38.433Z,97248.80
2023-04-22T08:38:39.294Z,97246.27
2023-04-22T08:41:07.146Z,97243.03
2023-04-22T08:43:36.425Z,97244.52
2023-04-22T08:46:04.567Z,97243.77
2023-04-22T08:48:41.404Z,97247.14
2023-04-22T08:51:18.197Z,97248.33
2023-04-22T08:53:52.952Z,97247.82
2023-04-22T08:56:27.087Z,97241.81
2023-04-22T08:58:56.751Z,97241.48
2023-04-22T09:01:26.424Z,97245.23
2023-04-22T09:03:59.395Z,97239.87
2023-04-22T09:06:27.453Z,97241.74
2023-04-22T09:08:55.608Z,97233.63
2023-04-22T09:11:23.565Z,97236.79
2023-04-22T09:13:54.828Z,97233.09
2023-04-22T09:16:26.075Z,97228.60
2023-04-22T09:18:54.113Z,97229.72
2023-04-22T09:21:31.607Z,97226.24
2023-04-22T09:24:02.555Z,97235.80
2023-04-22T09:26:36.733Z,97230.66
2023-04-22T09:29:09.240Z,97229.05
2023-04-22T09:31:37.487Z,97231.26
2023-04-22T09:34:09.516Z,97225.91
2023-04-22T09:36:37.321Z,97220.79
2023-04-22T09:39:09.003Z,97225.11
2023-04-22T11:13:47.511Z,97177.73
2023-04-22T11:16:15.854Z,97177.23
2023-04-22T11:18:46.759Z,97179.70
2023-04-22T11:21:18.097Z,97180.31
2023-04-22T11:23:52.849Z,97181.57
2023-04-22T12:46:40.144Z,97144.28
2023-04-22T14:34:40.328Z,97124.66
2023-04-22T14:37:08.553Z,97124.66
2023-04-22T14:49:48.294Z,97124.84
2023-04-22T14:52:17.834Z,97118.35
2023-04-22T14:58:53.380Z,97119.45
2023-04-22T15:01:22.450Z,97112.22
2023-04-22T15:03:51.578Z,97116.22
2023-04-22T15:06:19.499Z,97118.11
2023-04-22T15:08:47.944Z,97114.39
2023-04-22T15:11:15.782Z,97114.06
2023-04-22T15:13:44.535Z,97108.46
2023-04-22T15:16:12.937Z,97107.66
2023-04-22T15:18:42.987Z,97097.36
2023-04-22T15:21:12.097Z,97113.08
2023-04-22T15:23:41.430Z,97112.84
2023-04-22T15:26:09.604Z,97105.37
2023-04-22T15:28:38.808Z,97112.61
2023-04-22T15:31:11.974Z,97109.07
2023-04-22T15:33:42.801Z,97107.02
2023-04-22T15:36:10.795Z,97114.54
2023-04-22T15:38:39.851Z,97112.31
2023-04-22T15:41:08.347Z,97110.88
2023-04-22T15:43:41.507Z,97120.29
2023-04-22T15:46:09.137Z,97118.73
2023-04-22T15:48:41.436Z,97125.93
2023-04-22T15:51:24.353Z,97126.30
2023-04-22T15:54:04.006Z,97128.54
2023-04-22T15:56:33.907Z,97123.02
2023-04-22T15:59:02.300Z,97127.24
2023-04-22T16:01:30.231Z,97123.91
2023-04-22T16:03:59.794Z,97125.25
2023-04-22T16:06:27.605Z,97128.73
2023-04-22T16:08:56.673Z,97128.16
2023-04-22T16:11:26.587Z,97108.43
2023-04-22T16:14:00.387Z,97127.87
2023-04-22T16:16:31.280Z,97125.71
2023-04-22T16:18:59.967Z,97124.89
2023-04-22T16:21:36.491Z,97127.95
2023-04-22T16:24:06.791Z,97133.17
2023-04-22T16:26:34.925Z,97111.52
2023-04-22T16:29:02.858Z,97131.56
2023-04-22T16:31:39.121Z,97132.42
2023-04-22T16:34:07.230Z,97128.47
2023-04-22T16:36:39.317Z,97130.77
2023-04-22T16:39:14.863Z,97133.18
2023-04-22T16:41:49.339Z,97135.25
2023-04-22T16:47:27.250Z,97135.84
2023-04-22T16:49:55.310Z,97131.27
2023-04-22T16:52:23.070Z,97136.25
2023-04-22T16:54:51.301Z,97135.95
2023-04-22T16:57:21.019Z,97138.75
2023-04-22T16:59:51.772Z,97136.12
2023-04-22T17:02:20.050Z,97137.81
2023-04-22T17:04:49.911Z,97144.14
2023-04-22T17:07:18.058Z,97145.06
2023-04-22T17:09:46.053Z,97144.16
2023-04-22T17:12:15.615Z,97142.28
2023-04-22T17:14:45.610Z,97148.59
2023-04-22T17:17:18.279Z,97148.88
2023-04-22T17:19:47.825Z,97151.70
2023-04-22T17:22:17.920Z,97145.02
2023-04-22T17:24:47.934Z,97147.28
2023-04-22T17:27:16.293Z,97154.31
2023-04-22T17:29:44.600Z,97160.38
2023-04-22T17:32:14.813Z,97158.52
2023-04-22T17:34:43.409Z,97162.81
2023-04-22T17:37:16.879Z,97170.06
2023-04-22T17:39:44.869Z,97173.75
2023-04-22T17:42:16.245Z,97174.35
2023-04-22T17:44:45.006Z,97181.08
2023-04-22T17:47:21.325Z,97181.67
2023-04-22T17:49:51.382Z,97179.55
2023-04-22T17:52:24.862Z,97166.76
2023-04-22T17:55:04.010Z,97189.27
2023-04-22T17:57:50.455Z,97189.50
2023-04-22T18:00:21.752Z,97198.67
2023-04-22T18:02:50.715Z,97199.13
2023-04-22T18:05:22.132Z,97208.95
2023-04-22T18:07:50.176Z,97203.32
2023-04-22T18:10:27.542Z,97207.14
2023-04-22T18:12:56.146Z,97212.97
2023-04-22T18:15:26.876Z,97218.09
2023-04-22T18:17:55.097Z,97216.79
2023-04-22T18:20:22.848Z,97222.69
2023-04-22T18:22:51.642Z,97218.31
2023-04-22T18:25:26.920Z,97228.39
2023-04-22T18:27:54.665Z,97231.83
2023-04-22T18:30:32.710Z,97236.48
2023-04-22T18:33:04.466Z,97239.80
2023-04-22T18:35:34.889Z,97247.38
2023-04-22T18:38:03.258Z,97243.59
2023-04-22T18:40:31.181Z,97252.88
2023-04-22T18:43:03.348Z,97253.27
2023-04-22T18:45:35.153Z,97258.00
2023-04-22T18:48:04.461Z,97259.28
2023-04-22T18:50:34.887Z,97260.12
2023-04-22T18:53:02.801Z,97260.92
2023-04-22T18:55:31.698Z,97260.73
2023-04-22T18:57:59.571Z,97253.57
2023-04-22T19:00:27.310Z,97257.75
2023-04-22T19:02:55.665Z,97255.11
2023-04-22T19:05:25.393Z,97257.14
2023-04-22T19:07:53.717Z,97266.95
2023-04-22T19:10:29.956Z,97269.88
2023-04-22T19:12:58.881Z,97268.88
2023-04-22T19:15:26.786Z,97274.17
2023-04-22T19:17:54.933Z,97270.59
2023-04-22T19:20:23.209Z,97270.63
2023-04-22T19:22:51.343Z,97273.55
2023-04-22T19:25:21.614Z,97278.27
2023-04-22T19:27:50.518Z,97285.31
2023-04-22T19:30:19.610Z,97284.17
2023-04-22T19:32:52.184Z,97278.55
2023-04-22T19:35:20.836Z,97280.70
2023-04-22T19:37:49.066Z,97277.42
2023-04-22T19:40:18.988Z,97286.05
2023-04-22T19:42:49.195Z,97287.95
2023-04-22T19:45:19.647Z,97291.19
2023-04-22T19:47:48.494Z,97294.88
2023-04-22T19:50:17.780Z,97295.42
2023-04-22T19:52:47.303Z,97297.68
2023-04-22T19:55:16.804Z,97294.86
2023-04-22T19:57:45.692Z,97292.83
2023-04-22T20:00:14.450Z,97294.49
2023-04-22T20:02:43.949Z,97294.37
2023-04-22T20:05:12.965Z,97302.32
2023-04-22T20:07:45.646Z,97298.72
2023-04-22T20:10:17.015Z,97301.29
2023-04-22T20:12:46.202Z,97296.00
2023-04-22T20:15:14.667Z,97299.81
2023-04-22T20:17:43.061Z,97298.00
2023-04-22T20:20:17.223Z,97297.88
2023-04-22T20:24:29.008Z,97295.05
2023-04-22T20:25:57.345Z,97304.59
2023-04-22T20:28:32.730Z,97301.00
2023-04-22T20:34:22.046Z,97305.09
2023-04-22T20:36:54.185Z,97304.27
2023-04-22T20:39:24.965Z,97303.91
2023-04-22T20:41:59.053Z,97307.59
2023-04-22T20:44:28.400Z,97306.12
2023-04-22T20:46:58.312Z,97310.89
2023-04-22T20:49:26.560Z,97311.77
2023-04-22T20:51:56.024Z,97317.91
2023-04-22T20:54:29.026Z,97314.05
2023-04-22T20:56:54.096Z,97316.16
2023-04-22T20:59:21.997Z,97307.53
2023-04-22T21:01:52.467Z,97307.73
2023-04-22T21:04:23.696Z,97314.41
2023-04-22T21:06:54.297Z,97314.05
2023-04-22T21:09:26.575Z,97312.00
2023-04-22T21:11:55.046Z,97311.30
2023-04-22T21:14:25.447Z,97309.59
2023-04-22T21:17:00.975Z,97314.27
2023-04-22T21:19:35.635Z,97323.53
2023-04-22T21:22:05.514Z,97317.12
2023-04-22T21:24:37.088Z,97316.33
2023-04-22T21:27:07.025Z,97318.31
2023-04-22T21:29:37.686Z,97323.47
2023-04-22T21:32:09.430Z,97325.70
2023-04-22T21:34:37.493Z,97329.17
2023-04-22T21:37:07.262Z,97326.80
2023-04-22T21:39:36.192Z,97330.38
2023-04-22T21:42:06.241Z,97328.55
2023-04-22T21:44:35.819Z,97331.80
2023-04-22T21:47:04.533Z,97328.10
2023-04-22T21:49:32.747Z,97331.88
2023-04-22T21:52:00.778Z,97330.09
2023-04-22T21:54:29.121Z,97335.20
2023-04-22T21:56:57.367Z,97335.88
2023-04-22T21:59:25.604Z,97336.81
2023-04-22T22:01:53.877Z,97339.36
2023-04-22T22:04:22.043Z,97339.44
2023-04-22T22:06:50.280Z,97344.66
2023-04-22T22:09:18.050Z,97341.83
2023-04-22T22:11:46.036Z,97343.02
2023-04-22T22:14:14.226Z,97340.44
2023-04-22T22:16:43.243Z,97343.20
2023-04-22T22:19:11.206Z,97344.39
2023-04-22T22:21:38.916Z,97342.67
2023-04-22T22:24:08.901Z,97340.84
2023-04-22T22:26:38.832Z,97340.28
2023-04-22T22:29:08.961Z,97339.83
2023-04-22T22:31:36.978Z,97336.33
2023-04-22T22:34:05.156Z,97340.13
2023-04-22T22:36:34.355Z,97338.00
2023-04-22T22:39:04.078Z,97336.66
2023-04-22T22:41:33.762Z,97337.00
2023-04-22T22:44:01.684Z,97338.08
2023-04-22T22:46:30.721Z,97337.78
2023-04-22T22:48:58.975Z,97335.88
2023-04-22T22:51:28.834Z,97341.81
2023-04-22T22:53:56.898Z,97346.63
2023-04-22T22:56:25.211Z,97345.50
2023-04-22T22:58:53.179Z,97332.64
2023-04-22T23:01:21.657Z,97334.77
2023-04-22T23:03:49.551Z,97340.20
2023-04-22T23:06:17.511Z,97337.07
2023-04-22T23:08:45.529Z,97336.69
2023-04-22T23:11:13.508Z,97339.75
2023-04-22T23:13:41.399Z,97341.98
2023-04-22T23:16:09.728Z,97336.20
2023-04-22T23:18:39.034Z,97340.07
2023-04-22T23:21:07.210Z,97335.66
2023-04-22T23:23:36.396Z,97334.39
2023-04-22T23:26:04.928Z,97330.47
2023-04-22T23:28:34.056Z,97331.88
2023-04-22T23:31:05.837Z,97330.94
2023-04-22T23:33:38.364Z,97336.08
2023-04-22T23:36:16.454Z,97333.47
2023-04-22T23:39:14.588Z,97336.22
2023-04-22T23:41:42.387Z,97340.02
2023-04-22T23:44:11.228Z,97334.79
2023-04-22T23:46:38.939Z,97344.02
2023-04-22T23:49:07.007Z,97341.44
2023-04-22T23:51:35.154Z,97333.23
2023-04-22T23:54:03.070Z,97333.53
2023-04-22T23:56:31.478Z,97335.98
2023-04-22T23:58:59.912Z,97338.95
